createdAt,value
2019-04-06T00:00:36.214Z,7.97
2019-04-06T00:02:40.528Z,8.47
2019-04-06T00:04:44.418Z,9.10
2019-04-06T00:06:48.594Z,9.67
2019-04-06T00:08:52.487Z,7.83
2019-04-06T00:10:56.377Z,7.53
2019-04-06T00:13:00.293Z,9.70
2019-04-06T00:15:04.989Z,5.47
2019-04-06T00:17:09.008Z,13.00
2019-04-06T00:19:12.965Z,7.63
2019-04-06T00:21:16.853Z,8.47
2019-04-06T00:23:20.912Z,6.93
2019-04-06T00:25:24.812Z,7.43
2019-04-06T00:27:28.710Z,8.30
2019-04-06T00:29:32.628Z,7.80
2019-04-06T00:31:47.032Z,7.70
2019-04-06T00:33:50.949Z,7.03
2019-04-06T00:35:54.809Z,6.27
2019-04-06T00:37:58.715Z,10.43
2019-04-06T00:40:02.630Z,6.60
2019-04-06T00:42:06.513Z,6.33
2019-04-06T00:44:10.491Z,5.70
2019-04-06T00:46:14.386Z,6.03
2019-04-06T00:48:18.269Z,5.37
2019-04-06T00:50:22.205Z,6.53
2019-04-06T00:52:26.082Z,7.10
2019-04-06T00:54:29.969Z,6.50
2019-04-06T00:56:33.888Z,7.10
2019-04-06T00:58:37.795Z,6.00
2019-04-06T01:00:41.702Z,7.17
2019-04-06T01:02:45.591Z,8.17
2019-04-06T01:04:49.522Z,8.40
2019-04-06T01:06:53.398Z,8.50
2019-04-06T01:08:57.305Z,7.33
2019-04-06T01:11:01.270Z,10.13
2019-04-06T01:13:05.137Z,10.03
2019-04-06T01:15:09.315Z,12.50
2019-04-06T01:17:13.277Z,13.13
2019-04-06T01:19:17.245Z,16.47
2019-04-06T01:21:21.119Z,20.03
2019-04-06T01:23:25.040Z,17.63
2019-04-06T01:25:28.930Z,17.23
2019-04-06T01:27:32.861Z,19.97
2019-04-06T01:29:36.775Z,22.50
2019-04-06T01:31:40.653Z,22.93
2019-04-06T01:33:44.605Z,24.83
2019-04-06T01:35:48.512Z,25.43
2019-04-06T01:37:52.517Z,26.53
2019-04-06T01:39:56.570Z,25.10
2019-04-06T01:42:00.487Z,25.37
2019-04-06T01:44:04.440Z,25.00
2019-04-06T01:46:16.354Z,26.33
2019-04-06T01:48:20.982Z,28.10
2019-04-06T01:50:24.880Z,27.20
2019-04-06T01:52:28.748Z,26.27
2019-04-06T01:54:32.809Z,23.60
2019-04-06T01:56:36.834Z,26.53
2019-04-06T01:58:40.826Z,25.77
2019-04-06T02:00:46.337Z,27.93
2019-04-06T02:02:57.210Z,26.33
2019-04-06T02:05:01.224Z,25.87
2019-04-06T02:07:05.216Z,27.10
2019-04-06T02:09:09.217Z,26.23
2019-04-06T02:11:13.203Z,23.63
2019-04-06T02:13:17.098Z,27.03
2019-04-06T02:15:21.014Z,27.23
2019-04-06T02:17:24.886Z,25.10
2019-04-06T02:19:28.790Z,23.80
2019-04-06T02:21:32.752Z,23.27
2019-04-06T02:23:36.653Z,27.40
2019-04-06T02:25:40.568Z,26.57
2019-04-06T02:27:44.485Z,28.80
2019-04-06T02:29:49.935Z,27.67
2019-04-06T02:32:07.423Z,26.80
2019-04-06T02:34:18.805Z,27.97
2019-04-06T02:36:29.801Z,28.13
2019-04-06T02:38:37.944Z,28.80
2019-04-06T02:40:46.135Z,29.30
2019-04-06T02:42:54.635Z,30.33
2019-04-06T02:44:58.526Z,29.80
2019-04-06T02:47:02.405Z,30.73
2019-04-06T02:49:06.310Z,32.40
2019-04-06T02:51:10.188Z,31.07
2019-04-06T02:53:14.464Z,31.10
2019-04-06T02:55:18.550Z,32.63
2019-04-06T02:57:22.502Z,33.30
2019-04-06T02:59:26.422Z,33.60
2019-04-06T03:01:30.323Z,33.43
2019-04-06T03:03:34.248Z,33.27
2019-04-06T03:05:38.141Z,35.17
2019-04-06T03:07:42.061Z,35.73
2019-04-06T03:09:45.971Z,34.03
2019-04-06T03:11:49.855Z,35.43
2019-04-06T03:13:53.765Z,36.77
2019-04-06T03:15:57.780Z,35.63
2019-04-06T03:18:01.836Z,35.60
2019-04-06T03:20:07.593Z,35.17
2019-04-06T03:22:11.486Z,37.23
2019-04-06T03:24:15.430Z,36.13
2019-04-06T03:26:19.305Z,38.90
2019-04-06T03:28:24.637Z,36.37
2019-04-06T03:30:28.982Z,33.17
2019-04-06T03:32:33.076Z,37.43
2019-04-06T03:34:36.976Z,37.03
2019-04-06T03:36:40.999Z,32.67
2019-04-06T03:38:44.905Z,36.17
2019-04-06T03:40:48.802Z,37.80
2019-04-06T03:42:52.757Z,37.30
2019-04-06T03:44:56.649Z,35.70
2019-04-06T03:47:00.635Z,35.87
2019-04-06T03:49:04.547Z,36.97
2019-04-06T03:51:08.670Z,37.40
2019-04-06T03:53:12.661Z,36.80
2019-04-06T03:55:16.632Z,36.90
2019-04-06T03:57:20.564Z,37.60
2019-04-06T03:59:24.448Z,35.50
2019-04-06T04:01:28.728Z,34.10
2019-04-06T04:03:32.650Z,36.37
2019-04-06T04:05:36.597Z,37.20
2019-04-06T04:07:40.516Z,39.37
2019-04-06T04:09:45.229Z,38.80
2019-04-06T04:11:49.120Z,39.23
2019-04-06T04:13:53.194Z,39.43
2019-04-06T04:15:58.141Z,38.53
2019-04-06T04:18:02.107Z,38.80
2019-04-06T04:20:09.113Z,43.48
2019-04-06T04:22:13.015Z,41.00
2019-04-06T04:24:16.996Z,43.67
2019-04-06T04:26:20.909Z,44.07
2019-04-06T04:28:24.872Z,43.30
2019-04-06T04:30:32.957Z,41.13
2019-04-06T04:32:34.375Z,47.10
2019-04-06T04:34:38.314Z,46.77
2019-04-06T04:36:42.516Z,46.60
2019-04-06T04:38:48.815Z,46.23
2019-04-06T04:40:52.738Z,44.30
2019-04-06T04:42:59.280Z,47.33
2019-04-06T04:45:03.418Z,44.43
2019-04-06T04:47:07.382Z,42.33
2019-04-06T04:49:11.267Z,44.23
2019-04-06T04:51:15.452Z,45.53
2019-04-06T04:53:19.606Z,45.27
2019-04-06T04:55:23.565Z,40.23
2019-04-06T04:57:39.655Z,41.23
2019-04-06T04:59:35.008Z,44.27
2019-04-06T05:01:38.914Z,44.90
2019-04-06T05:03:42.837Z,46.43
2019-04-06T05:05:46.838Z,50.37
2019-04-06T05:07:50.718Z,47.43
2019-04-06T05:09:54.665Z,42.57
2019-04-06T05:11:59.362Z,51.07
2019-04-06T05:14:39.690Z,45.30
2019-04-06T05:16:43.569Z,50.03
2019-04-06T05:18:47.532Z,51.20
2019-04-06T05:20:51.433Z,50.43
2019-04-06T05:22:58.747Z,51.57
2019-04-06T05:25:03.043Z,47.67
2019-04-06T05:27:07.173Z,51.50
2019-04-06T05:29:11.837Z,45.47
2019-04-06T05:31:15.759Z,52.40
2019-04-06T05:33:20.589Z,52.80
2019-04-06T05:35:25.102Z,52.43
2019-04-06T05:37:28.996Z,43.00
2019-04-06T05:39:32.877Z,48.90
2019-04-06T05:41:36.830Z,46.23
2019-04-06T05:43:41.010Z,47.00
2019-04-06T05:45:44.885Z,46.73
2019-04-06T05:47:48.947Z,49.17
2019-04-06T05:49:53.621Z,46.47
2019-04-06T05:51:57.506Z,45.10
2019-04-06T05:54:01.424Z,47.30
2019-04-06T05:56:07.903Z,47.07
2019-04-06T05:58:12.131Z,49.27
2019-04-06T06:00:16.721Z,47.50
2019-04-06T06:02:20.626Z,46.27
2019-04-06T06:04:24.865Z,45.37
2019-04-06T06:06:28.774Z,49.23
2019-04-06T06:08:32.664Z,44.67
2019-04-06T06:10:40.733Z,48.17
2019-04-06T06:12:44.938Z,46.77
2019-04-06T06:14:48.809Z,47.17
2019-04-06T06:16:52.763Z,49.37
2019-04-06T06:18:56.638Z,49.20
2019-04-06T06:21:01.231Z,44.90
2019-04-06T06:23:05.128Z,46.27
2019-04-06T06:25:09.114Z,45.43
2019-04-06T06:27:13.069Z,47.30
2019-04-06T06:29:16.962Z,44.43
2019-04-06T06:31:20.933Z,45.03
2019-04-06T06:33:24.890Z,42.60
2019-04-06T06:35:28.786Z,44.13
2019-04-06T06:37:33.923Z,40.70
2019-04-06T06:39:38.169Z,44.17
2019-04-06T06:41:42.061Z,44.97
2019-04-06T06:43:46.166Z,44.33
2019-04-06T06:45:50.174Z,46.13
2019-04-06T06:47:54.050Z,45.53
2019-04-06T06:49:57.993Z,41.87
2019-04-06T06:52:02.008Z,46.40
2019-04-06T06:54:07.448Z,45.80
2019-04-06T06:56:11.497Z,46.03
2019-04-06T06:58:24.850Z,45.13
2019-04-06T07:00:21.702Z,44.17
2019-04-06T07:02:25.585Z,45.20
2019-04-06T07:04:29.540Z,37.10
2019-04-06T07:06:33.413Z,44.93
2019-04-06T07:08:39.553Z,46.53
2019-04-06T07:10:42.972Z,40.40
2019-04-06T07:12:46.895Z,44.30
2019-04-06T07:14:50.821Z,45.47
2019-04-06T07:16:54.766Z,45.07
2019-04-06T07:18:58.689Z,43.70
2019-04-06T07:21:02.577Z,44.73
2019-04-06T07:23:06.493Z,41.67
2019-04-06T07:25:10.416Z,43.97
2019-04-06T07:27:14.313Z,43.03
2019-04-06T07:29:18.230Z,39.53
2019-04-06T07:31:22.156Z,43.37
2019-04-06T07:33:28.934Z,42.80
2019-04-06T07:35:35.449Z,42.60
2019-04-06T07:37:39.361Z,41.20
2019-04-06T07:39:43.485Z,39.70
2019-04-06T07:41:47.380Z,42.93
2019-04-06T07:43:51.350Z,44.03
2019-04-06T07:45:55.443Z,41.60
2019-04-06T07:47:59.325Z,43.13
2019-04-06T07:50:03.731Z,40.13
2019-04-06T07:52:09.312Z,39.63
2019-04-06T07:54:13.195Z,41.43
2019-04-06T07:56:17.099Z,40.93
2019-04-06T07:58:21.030Z,40.50
2019-04-06T08:00:25.025Z,38.47
2019-04-06T08:02:28.961Z,39.13
2019-04-06T08:04:32.941Z,36.10
2019-04-06T08:06:37.064Z,39.47
2019-04-06T08:08:41.196Z,35.53
2019-04-06T08:10:45.082Z,37.03
2019-04-06T08:12:49.020Z,38.07
2019-04-06T08:14:52.913Z,37.93
2019-04-06T08:16:56.829Z,33.67
2019-04-06T08:19:01.938Z,38.43
2019-04-06T08:21:06.679Z,39.80
2019-04-06T08:23:10.582Z,32.67
2019-04-06T08:25:14.902Z,41.60
2019-04-06T08:27:18.792Z,42.07
2019-04-06T08:29:22.704Z,33.00
2019-04-06T08:31:27.818Z,35.90
2019-04-06T08:33:31.779Z,36.90
2019-04-06T08:35:35.839Z,36.07
2019-04-06T08:37:39.938Z,40.03
2019-04-06T08:39:44.090Z,38.53
2019-04-06T08:41:48.832Z,33.63
2019-04-06T08:43:52.910Z,38.67
2019-04-06T08:45:57.075Z,35.67
2019-04-06T08:48:01.058Z,38.07
2019-04-06T08:50:08.788Z,35.33
2019-04-06T08:52:12.859Z,24.73
2019-04-06T08:54:16.752Z,29.17
2019-04-06T08:56:20.869Z,29.43
2019-04-06T08:58:27.679Z,33.90
2019-04-06T09:00:31.762Z,21.40
2019-04-06T09:02:37.186Z,20.53
2019-04-06T09:04:41.051Z,38.37
2019-04-06T09:06:44.968Z,32.17
2019-04-06T09:08:48.870Z,37.53
2019-04-06T09:10:52.786Z,37.13
2019-04-06T09:12:58.047Z,37.13
2019-04-06T09:15:01.933Z,32.50
2019-04-06T09:17:06.084Z,38.13
2019-04-06T09:19:10.158Z,38.70
2019-04-06T09:21:14.118Z,33.17
2019-04-06T09:23:18.105Z,33.77
2019-04-06T09:25:22.695Z,36.10
2019-04-06T09:27:27.181Z,38.93
2019-04-06T09:29:31.167Z,37.93
2019-04-06T09:31:36.952Z,24.77
2019-04-06T09:33:41.173Z,38.33
2019-04-06T09:35:45.088Z,39.80
2019-04-06T09:37:49.257Z,36.50
2019-04-06T09:39:53.208Z,38.67
2019-04-06T09:41:57.109Z,38.93
2019-04-06T09:44:01.079Z,37.30
2019-04-06T09:46:21.663Z,38.53
2019-04-06T09:48:33.154Z,25.03
2019-04-06T09:50:38.671Z,36.67
2019-04-06T09:53:00.851Z,44.23
2019-04-06T09:55:11.227Z,40.57
2019-04-06T09:57:22.617Z,41.70
2019-04-06T09:59:43.337Z,42.90
2019-04-06T10:02:06.190Z,37.10
2019-04-06T10:04:14.420Z,39.77
2019-04-06T10:06:25.829Z,31.17
2019-04-06T10:08:34.174Z,28.43
2019-04-06T10:10:45.626Z,25.70
2019-04-06T10:13:07.796Z,39.07
2019-04-06T10:15:30.297Z,29.83
2019-04-06T10:17:52.603Z,37.13
2019-04-06T10:20:03.773Z,28.77
2019-04-06T10:22:15.320Z,36.47
2019-04-06T10:24:20.840Z,33.93
2019-04-06T10:26:26.345Z,31.47
2019-04-06T10:28:37.641Z,37.07
2019-04-06T10:30:59.833Z,27.87
2019-04-06T10:33:07.933Z,36.77
2019-04-06T10:35:16.198Z,31.70
2019-04-06T10:37:24.618Z,32.93
2019-04-06T10:39:46.873Z,39.47
2019-04-06T10:41:55.176Z,39.23
2019-04-06T10:44:16.137Z,36.33
2019-04-06T10:46:37.736Z,37.70
2019-04-06T10:48:49.154Z,31.60
2019-04-06T10:51:11.151Z,42.63
2019-04-06T10:53:23.028Z,39.17
2019-04-06T10:55:44.728Z,28.13
2019-04-06T10:57:50.336Z,19.57
2019-04-06T11:00:02.289Z,36.40
2019-04-06T11:02:19.361Z,26.17
2019-04-06T11:04:30.765Z,40.03
2019-04-06T11:06:36.331Z,36.57
2019-04-06T11:08:57.992Z,26.90
2019-04-06T11:11:03.468Z,34.17
2019-04-06T11:13:14.862Z,31.50
2019-04-06T11:15:36.770Z,31.20
2019-04-06T11:17:48.188Z,33.80
2019-04-06T11:20:10.046Z,37.93
2019-04-06T11:22:31.089Z,42.90
2019-04-06T11:24:48.976Z,38.73
2019-04-06T11:26:57.136Z,26.90
2019-04-06T11:29:05.627Z,26.97
2019-04-06T11:31:17.023Z,37.23
2019-04-06T11:33:22.931Z,36.37
2019-04-06T11:35:44.933Z,30.40
2019-04-06T11:38:05.529Z,37.07
2019-04-06T11:40:23.033Z,29.60
2019-04-06T11:42:31.516Z,32.30
2019-04-06T11:44:49.161Z,27.73
2019-04-06T11:47:10.832Z,34.10
2019-04-06T11:49:19.037Z,33.43
2019-04-06T11:51:36.760Z,37.27
2019-04-06T11:53:47.728Z,40.10
2019-04-06T11:55:55.961Z,40.97
2019-04-06T11:58:01.449Z,38.93
2019-04-06T12:00:26.566Z,36.75
2019-04-06T12:02:31.620Z,24.83
2019-04-06T12:04:42.929Z,38.80
2019-04-06T12:06:48.473Z,42.97
2019-04-06T12:08:53.934Z,37.23
2019-04-06T12:11:16.203Z,36.80
2019-04-06T12:13:30.504Z,38.23
2019-04-06T12:15:41.712Z,31.63
2019-04-06T12:18:05.313Z,35.77
2019-04-06T12:20:11.191Z,31.27
2019-04-06T12:22:16.654Z,37.63
2019-04-06T12:24:25.284Z,24.70
2019-04-06T12:26:33.492Z,36.10
2019-04-06T12:28:39.000Z,37.40
2019-04-06T12:30:53.552Z,37.60
2019-04-06T12:33:01.834Z,36.67
2019-04-06T12:35:24.676Z,29.60
2019-04-06T12:37:42.549Z,35.93
2019-04-06T12:39:53.453Z,24.30
2019-04-06T12:41:55.243Z,38.83
2019-04-06T12:44:09.766Z,38.77
2019-04-06T12:46:20.949Z,41.03
2019-04-06T12:48:32.149Z,38.63
2019-04-06T12:50:40.618Z,35.83
2019-04-06T12:52:46.139Z,35.50
2019-04-06T12:54:51.641Z,36.17
2019-04-06T12:57:15.513Z,24.70
2019-04-06T12:59:21.210Z,20.53
2019-04-06T13:01:26.686Z,36.17
2019-04-06T13:03:44.248Z,33.37
2019-04-06T13:05:52.711Z,25.53
2019-04-06T13:08:14.939Z,34.20
2019-04-06T13:10:23.380Z,33.87
2019-04-06T13:12:45.064Z,27.30
2019-04-06T13:14:56.802Z,35.63
2019-04-06T13:17:02.431Z,37.53
2019-04-06T13:19:19.766Z,31.70
2019-04-06T13:21:34.259Z,37.50
2019-04-06T13:23:42.869Z,18.97
2019-04-06T13:26:05.201Z,31.10
2019-04-06T13:28:14.398Z,28.70
2019-04-06T13:30:20.269Z,34.13
2019-04-06T13:32:26.106Z,29.13
2019-04-06T13:34:31.644Z,31.30
2019-04-06T13:36:37.182Z,27.37
2019-04-06T13:38:42.654Z,31.33
2019-04-06T13:40:48.134Z,27.67
2019-04-06T13:43:02.980Z,29.10
2019-04-06T13:45:25.679Z,26.70
2019-04-06T13:47:31.651Z,26.97
2019-04-06T13:49:37.737Z,27.10
2019-04-06T13:51:43.346Z,26.00
2019-04-06T13:53:51.537Z,26.90
2019-04-06T13:56:13.292Z,25.47
2019-04-06T13:58:37.458Z,22.03
2019-04-06T14:01:13.846Z,24.60
2019-04-06T14:03:12.152Z,22.77
2019-04-06T14:05:26.621Z,22.57
2019-04-06T14:07:34.922Z,23.90
2019-04-06T14:09:41.257Z,21.97
2019-04-06T14:11:59.116Z,24.57
2019-04-06T14:14:07.347Z,21.57
2019-04-06T14:16:27.928Z,23.00
2019-04-06T14:18:42.426Z,23.67
2019-04-06T14:20:51.157Z,19.47
2019-04-06T14:22:56.653Z,23.90
2019-04-06T14:25:07.971Z,24.37
2019-04-06T14:27:19.572Z,23.50
2019-04-06T14:29:37.086Z,21.33
2019-04-06T14:31:51.794Z,23.83
2019-04-06T14:34:13.224Z,22.77
2019-04-06T14:36:21.370Z,21.70
2019-04-06T14:38:32.833Z,19.43
2019-04-06T14:40:44.181Z,21.33
2019-04-06T14:42:55.435Z,21.23
2019-04-06T14:45:15.937Z,22.93
2019-04-06T14:47:21.694Z,21.77
2019-04-06T14:49:36.850Z,22.57
2019-04-06T14:51:45.253Z,22.07
2019-04-06T14:53:50.762Z,19.63
2019-04-06T14:56:13.314Z,18.03
2019-04-06T14:58:22.284Z,20.60
2019-04-06T15:00:36.676Z,18.97
2019-04-06T15:03:00.608Z,16.03
2019-04-06T15:05:22.727Z,19.67
2019-04-06T15:07:37.252Z,20.50
2019-04-06T15:09:42.800Z,20.97
2019-04-06T15:11:54.819Z,17.47
2019-04-06T15:14:16.665Z,19.63
2019-04-06T15:16:22.156Z,19.47
2019-04-06T15:18:44.091Z,19.47
2019-04-06T15:20:50.002Z,18.97
2019-04-06T15:22:55.656Z,21.00
2019-04-06T15:25:12.318Z,19.33
2019-04-06T15:27:23.633Z,18.80
2019-04-06T15:29:38.725Z,19.67
2019-04-06T15:31:49.840Z,17.67
2019-04-06T15:33:54.289Z,17.47
2019-04-06T15:36:02.273Z,17.03
2019-04-06T15:38:16.954Z,15.07
2019-04-06T15:40:31.693Z,18.47
2019-04-06T15:42:53.652Z,17.93
2019-04-06T15:44:59.456Z,13.93
2019-04-06T15:47:07.613Z,16.47
2019-04-06T15:49:16.049Z,18.03
2019-04-06T15:51:37.081Z,15.73
2019-04-06T15:54:01.099Z,16.37
2019-04-06T15:56:05.972Z,16.60
2019-04-06T15:58:29.953Z,17.43
2019-04-06T16:00:38.137Z,14.57
2019-04-06T16:02:52.735Z,16.80
2019-04-06T16:05:13.440Z,16.50
2019-04-06T16:07:33.387Z,17.17
2019-04-06T16:09:44.157Z,19.40
2019-04-06T16:12:05.946Z,17.13
2019-04-06T16:14:11.447Z,17.43
2019-04-06T16:16:17.071Z,16.23
2019-04-06T16:18:28.403Z,15.83
2019-04-06T16:20:49.728Z,15.17
2019-04-06T16:23:07.659Z,15.77
2019-04-06T16:25:13.295Z,15.83
2019-04-06T16:27:21.608Z,15.97
2019-04-06T16:29:27.144Z,15.17
2019-04-06T16:31:44.568Z,12.00
2019-04-06T16:33:56.430Z,14.00
2019-04-06T16:36:02.112Z,14.20
2019-04-06T16:38:13.594Z,12.80
2019-04-06T16:40:37.312Z,14.27
2019-04-06T16:42:59.575Z,11.67
2019-04-06T16:45:21.650Z,15.10
2019-04-06T16:47:43.707Z,14.97
2019-04-06T16:49:57.920Z,11.97
2019-04-06T16:52:03.606Z,10.83
2019-04-06T16:54:21.305Z,13.57
2019-04-06T16:56:29.974Z,11.20
2019-04-06T16:58:38.340Z,12.40
2019-04-06T17:00:50.021Z,13.80
2019-04-06T17:03:12.110Z,14.17
2019-04-06T17:05:33.140Z,11.70
2019-04-06T17:07:44.181Z,11.87
2019-04-06T17:09:58.817Z,11.30
2019-04-06T17:12:19.850Z,11.60
2019-04-06T17:14:25.398Z,12.57
2019-04-06T17:16:46.510Z,12.60
2019-04-06T17:18:52.051Z,14.13
2019-04-06T17:21:00.611Z,14.07
2019-04-06T17:23:22.363Z,11.67
2019-04-06T17:25:46.379Z,12.83
2019-04-06T17:28:00.874Z,12.93
2019-04-06T17:30:08.325Z,11.20
2019-04-06T17:32:33.939Z,10.63
2019-04-06T17:34:32.617Z,12.73
2019-04-06T17:36:54.990Z,13.83
2019-04-06T17:39:13.160Z,13.83
2019-04-06T17:41:24.896Z,11.50
2019-04-06T17:43:39.513Z,11.17
2019-04-06T17:45:50.890Z,13.07
2019-04-06T17:47:56.434Z,14.73
2019-04-06T17:50:01.968Z,14.43
2019-04-06T17:52:25.352Z,15.53
2019-04-06T17:54:32.071Z,14.07
2019-04-06T17:56:37.637Z,13.63
2019-04-06T17:58:59.485Z,13.73
2019-04-06T18:01:07.852Z,13.97
2019-04-06T18:03:13.455Z,14.33
2019-04-06T18:05:19.034Z,14.40
2019-04-06T18:07:33.257Z,15.60
2019-04-06T18:09:41.488Z,14.23
2019-04-06T18:11:58.873Z,14.87
2019-04-06T18:14:03.046Z,14.07
2019-04-06T18:16:07.129Z,14.77
2019-04-06T18:18:11.010Z,15.17
2019-04-06T18:20:15.068Z,14.97
2019-04-06T18:22:19.346Z,14.70
2019-04-06T18:24:23.381Z,11.43
2019-04-06T18:26:27.365Z,13.70
2019-04-06T18:28:31.746Z,14.83
2019-04-06T18:30:36.082Z,12.93
2019-04-06T18:32:44.332Z,14.77
2019-04-06T18:34:48.243Z,14.70
2019-04-06T18:36:53.728Z,14.47
2019-04-06T18:39:08.400Z,13.13
2019-04-06T18:41:12.285Z,14.53
2019-04-06T18:43:16.210Z,13.47
2019-04-06T18:45:20.111Z,13.27
2019-04-06T18:47:24.187Z,12.13
2019-04-06T18:49:28.367Z,14.67
2019-04-06T18:51:32.242Z,14.87
2019-04-06T18:53:37.048Z,14.57
2019-04-06T18:55:41.098Z,15.37
2019-04-06T18:57:45.146Z,14.97
2019-04-06T18:59:49.226Z,15.77
2019-04-06T19:01:53.133Z,15.83
2019-04-06T19:03:57.435Z,13.30
2019-04-06T19:06:01.449Z,14.63
2019-04-06T19:08:05.344Z,16.60
2019-04-06T19:10:09.513Z,14.30
2019-04-06T19:12:13.493Z,14.97
2019-04-06T19:14:20.305Z,15.13
2019-04-06T19:16:24.296Z,15.60
2019-04-06T19:18:28.437Z,13.63
2019-04-06T19:20:32.494Z,20.07
2019-04-06T19:22:36.415Z,18.23
2019-04-06T19:24:40.619Z,20.33
2019-04-06T19:26:44.653Z,18.40
2019-04-06T19:28:48.545Z,18.03
2019-04-06T19:30:52.491Z,15.97
2019-04-06T19:32:56.369Z,17.17
2019-04-06T19:35:01.132Z,17.90
2019-04-06T19:37:05.195Z,16.50
2019-04-06T19:39:12.045Z,17.33
2019-04-06T19:41:15.989Z,15.73
2019-04-06T19:43:19.873Z,17.87
2019-04-06T19:45:23.811Z,17.93
2019-04-06T19:47:27.906Z,18.10
2019-04-06T19:49:32.000Z,18.03
2019-04-06T19:51:36.498Z,17.70
2019-04-06T19:53:40.814Z,16.77
2019-04-06T19:55:44.933Z,17.33
2019-04-06T19:57:49.594Z,19.20
2019-04-06T19:59:53.915Z,18.73
2019-04-06T20:01:57.894Z,18.17
2019-04-06T20:04:01.794Z,18.10
2019-04-06T20:06:05.697Z,18.83
2019-04-06T20:08:09.780Z,20.70
2019-04-06T20:10:13.924Z,20.73
2019-04-06T20:12:17.881Z,23.10
2019-04-06T20:14:21.937Z,22.03
2019-04-06T20:16:26.375Z,22.87
2019-04-06T20:18:30.459Z,20.80
2019-04-06T20:20:34.396Z,19.80
2019-04-06T20:22:38.306Z,18.87
2019-04-06T20:24:42.253Z,17.53
2019-04-06T20:26:46.511Z,16.93
2019-04-06T20:28:50.511Z,18.97
2019-04-06T20:30:54.491Z,18.53
2019-04-06T20:32:58.392Z,16.50
2019-04-06T20:35:02.431Z,19.73
2019-04-06T20:37:06.528Z,17.97
2019-04-06T20:39:10.524Z,17.40
2019-04-06T20:41:14.463Z,18.03
2019-04-06T20:43:18.580Z,17.30
2019-04-06T20:45:22.520Z,15.97
2019-04-06T20:47:26.726Z,16.40
2019-04-06T20:49:30.864Z,17.20
2019-04-06T20:51:34.780Z,16.30
2019-04-06T20:53:38.688Z,20.33
2019-04-06T20:55:43.091Z,20.83
2019-04-06T20:57:47.507Z,22.47
2019-04-06T20:59:51.420Z,23.83
2019-04-06T21:01:55.357Z,22.53
2019-04-06T21:04:02.649Z,21.10
2019-04-06T21:06:05.181Z,21.37
2019-04-06T21:08:09.138Z,21.17
2019-04-06T21:10:13.751Z,21.30
2019-04-06T21:12:18.208Z,20.20
2019-04-06T21:14:22.228Z,21.03
2019-04-06T21:16:26.561Z,22.33
2019-04-06T21:18:31.004Z,23.23
2019-04-06T21:20:34.984Z,24.30
2019-04-06T21:22:38.913Z,27.70
2019-04-06T21:24:42.939Z,30.27
2019-04-06T21:26:46.917Z,30.20
2019-04-06T21:28:50.890Z,30.10
2019-04-06T21:30:54.954Z,32.23
2019-04-06T21:32:59.948Z,33.27
2019-04-06T21:35:05.996Z,32.77
2019-04-06T21:37:09.916Z,32.20
2019-04-06T21:39:14.226Z,32.60
2019-04-06T21:41:18.678Z,34.50
2019-04-06T21:43:22.604Z,33.00
2019-04-06T21:45:26.469Z,33.27
2019-04-06T21:47:30.799Z,33.00
2019-04-06T21:49:34.825Z,31.17
2019-04-06T21:51:39.136Z,33.43
2019-04-06T21:53:43.563Z,33.00
2019-04-06T21:55:48.257Z,32.67
2019-04-06T21:57:52.325Z,33.77
2019-04-06T21:59:56.323Z,33.43
2019-04-06T22:02:00.793Z,32.97
2019-04-06T22:04:05.373Z,33.47
2019-04-06T22:06:09.326Z,33.60
2019-04-06T22:08:13.325Z,32.43
2019-04-06T22:10:17.327Z,33.00
2019-04-06T22:12:21.728Z,34.43
2019-04-06T22:14:25.730Z,31.83
2019-04-06T22:16:29.857Z,32.17
2019-04-06T22:18:33.942Z,32.03
2019-04-06T22:20:37.902Z,33.67
2019-04-06T22:22:41.789Z,35.07
2019-04-06T22:24:46.296Z,29.07
2019-04-06T22:26:50.682Z,32.37
2019-04-06T22:28:54.619Z,34.43
2019-04-06T22:30:59.011Z,35.43
2019-04-06T22:33:03.139Z,34.80
2019-04-06T22:35:08.996Z,34.80
2019-04-06T22:37:13.086Z,33.87
2019-04-06T22:39:16.968Z,32.90
2019-04-06T22:41:20.862Z,34.40
2019-04-06T22:43:24.972Z,29.63
2019-04-06T22:45:31.019Z,32.43
2019-04-06T22:47:35.100Z,33.10
2019-04-06T22:49:39.008Z,31.27
2019-04-06T22:51:43.440Z,32.93
2019-04-06T22:53:47.612Z,32.83
2019-04-06T22:55:51.573Z,32.70
2019-04-06T22:57:55.748Z,33.27
2019-04-06T22:59:59.713Z,33.73
2019-04-06T23:02:04.357Z,32.67
2019-04-06T23:04:27.893Z,33.70
2019-04-06T23:06:36.667Z,33.97
2019-04-06T23:08:40.648Z,34.70
2019-04-06T23:10:44.554Z,30.83
2019-04-06T23:12:48.700Z,29.43
2019-04-06T23:14:53.703Z,32.07
2019-04-06T23:16:57.807Z,32.17
2019-04-06T23:19:01.877Z,32.97
2019-04-06T23:21:06.471Z,31.97
2019-04-06T23:23:10.572Z,31.27
2019-04-06T23:25:14.976Z,31.60
2019-04-06T23:27:19.262Z,31.90
2019-04-06T23:29:23.420Z,32.67
2019-04-06T23:31:27.930Z,31.43
2019-04-06T23:33:31.998Z,29.20
2019-04-06T23:35:35.988Z,27.30
2019-04-06T23:37:40.364Z,24.13
2019-04-06T23:39:44.412Z,29.03
2019-04-06T23:41:48.469Z,32.03
2019-04-06T23:43:53.049Z,31.13
2019-04-06T23:45:57.165Z,30.87
2019-04-06T23:48:01.573Z,28.40
2019-04-06T23:50:07.602Z,31.50
2019-04-06T23:52:12.041Z,31.37
2019-04-06T23:54:16.049Z,31.30
2019-04-06T23:56:20.503Z,31.17
2019-04-06T23:58:24.593Z,28.47
